Colstrip, MT (59323)

4:50 PM MST on March 01, 2015 (GMT -0700)
Water Plant | Change Station
CLOSE
Current Station
Personal Weather Station
Location: Colstrip, MT
Elevation: 3255 ft
Nearby Weather Stations

Elev 3255 ft 45.89 °N, 106.63 °W | Updated 6 minutes ago

Partly Cloudy
Partly Cloudy
30.3 °F
Feels Like 26 °F
N
4.0
Wind Variable Wind from ENE
Gusts 5.0 mph

Today
High -- | Low -- °F
--% Chance of Precip.
Yesterday
High -- | Low -- °F
Precip. -- in
6:45 AM 5:52 PM
Waxing Gibbous, 88% visible
Pressure 30.39 in
Visibility 10.0 miles
Clouds Few 4200 ft
Windchill 26 °F
Dew Point 13 °F
Humidity 49%
Rainfall 0.00 in
Snow Depth Not available.
UV 1 out of 12
Pollen .10 out of 12
Air Quality Not available.
Flu Activity Not available.
METAR KMLS 012253Z AUTO 36005KT 10SM FEW042 M02/M13 A3028 RMK AO2 SLP290 T10221128

More Conditions Fewer Conditions

Pressure 30.39 in
Visibility 10.0 miles
Clouds Few 4200 ft
Windchill 26 °F
Dew Point 13 °F
Humidity 49%
Rainfall 0.00 in
Snow Depth Not available.
UV 1 out of 12
Pollen .10 out of 12
Air Quality Not available.
Flu Activity Not available.
METAR KMLS 012253Z AUTO 36005KT 10SM FEW042 M02/M13 A3028 RMK AO2 SLP290 T10221128

More Conditions Fewer Conditions

10-Day Weather Forecast

Almanac

Astronomy

Mar. 01, 2015 Rise Set
Actual Time
Civil Twilight
Nautical Twilight
Astronomical Twilight
Moon
Length of Visible Light
Length of Day
Tomorrow will be .
, % of the Moon is Illuminated

Today's Extremes

State Highs State Lows

Community

WunderPhotos

Upload Photos

1,801,614 photos uploaded!

WunderBlogs® & News

Nearby

Air Quality

  Air Quality AQ Index Pollutant
Not available.

Snow Depth

Station Depth Elevation

Earthquake Activity

City Distance Mag. Time & Date
Minimum magnitude displayed is 2.5.

Coastal Water Temperatures

Place Temperature

Nearby Weather Stations